Time;durP1;ratioP1;P1;durP2;ratioP2;P2;SDS_P1;SDS_P2;PMS_P1;PMS_P2;Temp;Humidity;BMP_temperature;BMP_pressure;BME280_temperature;BME280_humidity;BME280_pressure;Samples;Min_cycle;Max_cycle;Signal;HPM_P1;HPM_P2
2022/10/25 00:01:25;;;;;;;7.67;3.83;;;;;;;;;;5101228;28;20244;-62
2022/10/25 00:03:53;;;;;;;7.43;3.87;;;;;;;;;;5087597;28;20225;-62
2022/10/25 00:06:21;;;;;;;10.03;4.03;;;;;;;;;;5100798;28;20227;-62
2022/10/25 00:08:49;;;;;;;5.30;3.57;;;;;;;;;;5100707;28;20243;-62
2022/10/25 00:11:20;;;;;;;8.23;3.13;;;;;;;;;;5100992;28;20312;-62
2022/10/25 00:13:48;;;;;;;7.03;3.17;;;;;;;;;;5100968;28;20592;-62
2022/10/25 00:16:17;;;;;;;8.33;3.47;;;;;;;;;;5100862;28;20672;-62
2022/10/25 00:18:44;;;;;;;6.53;3.63;;;;;;;;;;5100782;28;20243;-62
2022/10/25 00:21:12;;;;;;;6.50;4.07;;;;;;;;;;5100668;28;20216;-62
2022/10/25 00:23:40;;;;;;;4.90;3.50;;;;;;;;;;5100568;28;20633;-62
2022/10/25 00:26:08;;;;;;;6.23;3.70;;;;;;;;;;5100711;28;20205;-62
2022/10/25 00:28:37;;;;;;;7.07;3.80;;;;;;;;;;5100589;28;20248;-62
2022/10/25 00:31:05;;;;;;;5.93;3.07;;;;;;;;;;5100671;28;20226;-62
2022/10/25 00:33:34;;;;;;;5.80;2.87;;;;;;;;;;5100431;28;20682;-62
2022/10/25 00:36:05;;;;;;;6.37;3.30;;;;;;;;;;5100357;28;20209;-62
2022/10/25 00:38:33;;;;;;;4.43;3.03;;;;;;;;;;5100423;28;20205;-62
2022/10/25 00:41:01;;;;;;;6.97;3.03;;;;;;;;;;5100083;28;20285;-62
2022/10/25 00:43:33;;;;;;;9.33;3.33;;;;;;;;;;5099914;28;20234;-62
2022/10/25 00:46:04;;;;;;;5.73;3.20;;;;;;;;;;5100279;28;20240;-62
2022/10/25 00:48:33;;;;;;;3.97;3.17;;;;;;;;;;5100218;28;20264;-62
2022/10/25 00:51:00;;;;;;;8.40;3.87;;;;;;;;;;5099932;28;20289;-62
2022/10/25 00:53:31;;;;;;;6.50;3.73;;;;;;;;;;5100014;28;20269;-62
2022/10/25 00:56:02;;;;;;;11.07;3.67;;;;;;;;;;5099734;28;20321;-63
2022/10/25 00:58:31;;;;;;;6.47;3.90;;;;;;;;;;5099822;28;20245;-62
2022/10/25 01:00:59;;;;;;;7.10;3.70;;;;;;;;;;5091963;28;20226;-62
2022/10/25 01:03:28;;;;;;;5.90;3.70;;;;;;;;;;5098079;28;20248;-62
2022/10/25 01:05:58;;;;;;;5.30;3.07;;;;;;;;;;5099719;28;20241;-62
2022/10/25 01:08:26;;;;;;;5.13;3.37;;;;;;;;;;5099763;28;20684;-62
2022/10/25 01:10:54;;;;;;;5.97;3.60;;;;;;;;;;5099437;28;20312;-62
2022/10/25 01:13:21;;;;;;;8.20;3.87;;;;;;;;;;5099394;28;20677;-62
2022/10/25 01:15:54;;;;;;;5.10;3.33;;;;;;;;;;5099437;28;20275;-62
2022/10/25 01:18:23;;;;;;;10.20;4.00;;;;;;;;;;5099361;28;20284;-62
2022/10/25 01:21:15;;;;;;;7.50;3.50;;;;;;;;;;5099166;28;20213;-62
2022/10/25 01:24:08;;;;;;;9.80;4.47;;;;;;;;;;5098876;28;20257;-62
2022/10/25 01:26:57;;;;;;;7.67;3.97;;;;;;;;;;5099297;28;20233;-62
2022/10/25 01:29:33;;;;;;;8.17;3.87;;;;;;;;;;5073757;28;20240;-61
2022/10/25 01:32:05;;;;;;;7.57;4.03;;;;;;;;;;5099436;28;20312;-62
2022/10/25 01:34:35;;;;;;;9.57;3.80;;;;;;;;;;5098934;28;20317;-62
2022/10/25 01:37:06;;;;;;;9.00;4.00;;;;;;;;;;5099597;28;20261;-62
2022/10/25 01:39:35;;;;;;;8.30;4.33;;;;;;;;;;5098851;28;20248;-62
2022/10/25 01:42:06;;;;;;;8.70;4.27;;;;;;;;;;5099177;28;20740;-62
2022/10/25 01:44:38;;;;;;;5.37;3.93;;;;;;;;;;5099115;28;20784;-62
2022/10/25 01:47:10;;;;;;;8.37;3.80;;;;;;;;;;5098934;28;20244;-62
2022/10/25 01:49:41;;;;;;;7.87;4.00;;;;;;;;;;5098835;28;20244;-62
2022/10/25 01:52:09;;;;;;;10.23;5.03;;;;;;;;;;5098919;28;20260;-62
2022/10/25 01:54:36;;;;;;;6.77;3.70;;;;;;;;;;5098447;28;20240;-62
2022/10/25 01:57:16;;;;;;;9.20;4.03;;;;;;;;;;5097684;28;20232;-62
2022/10/25 01:59:53;;;;;;;10.73;4.03;;;;;;;;;;5098659;28;20300;-62
2022/10/25 02:02:25;;;;;;;9.33;4.43;;;;;;;;;;5098598;28;20231;-62
2022/10/25 02:04:58;;;;;;;8.50;4.40;;;;;;;;;;5098464;28;20308;-62
2022/10/25 02:07:28;;;;;;;10.27;4.63;;;;;;;;;;5098756;28;20205;-62
2022/10/25 02:10:01;;;;;;;12.27;5.13;;;;;;;;;;5098407;28;20271;-62
2022/10/25 02:12:31;;;;;;;9.97;5.17;;;;;;;;;;5098594;28;20221;-62
2022/10/25 02:15:04;;;;;;;12.20;4.63;;;;;;;;;;5098558;28;20252;-62
2022/10/25 02:17:34;;;;;;;13.07;5.17;;;;;;;;;;5098629;28;20240;-62
2022/10/25 02:20:05;;;;;;;12.27;5.03;;;;;;;;;;5098244;28;20707;-62
2022/10/25 02:22:33;;;;;;;10.80;4.93;;;;;;;;;;5098313;28;20707;-63
2022/10/25 02:25:01;;;;;;;14.57;5.30;;;;;;;;;;5098152;28;20660;-62
2022/10/25 02:27:31;;;;;;;13.27;5.30;;;;;;;;;;5098329;28;20715;-62
2022/10/25 02:29:58;;;;;;;13.20;5.07;;;;;;;;;;5098371;28;20240;-62
2022/10/25 02:32:26;;;;;;;13.10;6.07;;;;;;;;;;5098246;28;20316;-62
2022/10/25 02:34:55;;;;;;;10.03;4.80;;;;;;;;;;5097711;28;20253;-62
2022/10/25 02:37:23;;;;;;;9.20;4.67;;;;;;;;;;5098117;28;20231;-62
2022/10/25 02:39:51;;;;;;;14.33;5.33;;;;;;;;;;5097963;28;20236;-62
2022/10/25 02:42:19;;;;;;;17.77;5.97;;;;;;;;;;5098124;28;20289;-62
2022/10/25 02:44:46;;;;;;;10.20;5.50;;;;;;;;;;5098072;28;20739;-62
2022/10/25 02:47:14;;;;;;;12.93;5.80;;;;;;;;;;5098123;28;20233;-62
2022/10/25 02:49:41;;;;;;;11.90;5.00;;;;;;;;;;5097891;28;20649;-62
2022/10/25 02:52:10;;;;;;;11.63;4.83;;;;;;;;;;5097763;28;20317;-62
2022/10/25 02:54:38;;;;;;;7.90;4.90;;;;;;;;;;5097461;28;20604;-62
2022/10/25 02:57:06;;;;;;;11.77;5.30;;;;;;;;;;5098006;28;20233;-62
2022/10/25 02:59:33;;;;;;;11.00;4.97;;;;;;;;;;5097764;28;20247;-62
2022/10/25 03:02:01;;;;;;;8.83;4.87;;;;;;;;;;5097928;28;20229;-63
2022/10/25 03:04:29;;;;;;;10.13;5.07;;;;;;;;;;5097530;28;20226;-62
2022/10/25 03:06:57;;;;;;;8.00;4.63;;;;;;;;;;5097491;28;20206;-62
2022/10/25 03:09:26;;;;;;;10.87;4.13;;;;;;;;;;5097799;28;20296;-61
2022/10/25 03:11:54;;;;;;;8.57;4.23;;;;;;;;;;5097731;28;20700;-62
2022/10/25 03:14:21;;;;;;;9.60;3.90;;;;;;;;;;5097617;28;20268;-61
2022/10/25 03:16:49;;;;;;;9.87;4.23;;;;;;;;;;5097713;28;20763;-62
2022/10/25 03:19:17;;;;;;;7.63;4.10;;;;;;;;;;5097481;28;20243;-62
2022/10/25 03:21:44;;;;;;;10.03;5.93;;;;;;;;;;5097537;28;20224;-62
2022/10/25 03:24:12;;;;;;;7.53;3.43;;;;;;;;;;5097486;28;20256;-61
2022/10/25 03:26:41;;;;;;;6.63;4.37;;;;;;;;;;5097723;28;20267;-62
2022/10/25 03:29:09;;;;;;;8.47;3.87;;;;;;;;;;5097696;28;20237;-62
2022/10/25 03:31:37;;;;;;;10.53;3.90;;;;;;;;;;5097595;28;20225;-62
2022/10/25 03:34:05;;;;;;;8.40;4.30;;;;;;;;;;5097335;28;20727;-61
2022/10/25 03:36:32;;;;;;;7.20;4.30;;;;;;;;;;5097317;28;20288;-62
2022/10/25 03:39:00;;;;;;;8.00;3.63;;;;;;;;;;5097575;28;20240;-62
2022/10/25 03:41:28;;;;;;;9.07;3.87;;;;;;;;;;5097542;28;20223;-61
2022/10/25 03:43:57;;;;;;;5.57;3.53;;;;;;;;;;5097156;28;20286;-62
2022/10/25 03:46:24;;;;;;;4.50;3.53;;;;;;;;;;5097575;28;20206;-61
2022/10/25 03:48:52;;;;;;;8.17;3.80;;;;;;;;;;5096950;28;20252;-61
2022/10/25 03:51:20;;;;;;;6.83;3.30;;;;;;;;;;5097206;28;20296;-61
2022/10/25 03:53:47;;;;;;;6.90;3.77;;;;;;;;;;5097160;28;20251;-62
2022/10/25 03:56:15;;;;;;;5.33;3.70;;;;;;;;;;5097551;28;20292;-62
2022/10/25 03:58:43;;;;;;;6.53;3.27;;;;;;;;;;5097420;28;20233;-62
2022/10/25 04:01:12;;;;;;;4.33;3.50;;;;;;;;;;5097191;28;20238;-62
2022/10/25 04:03:39;;;;;;;7.23;3.10;;;;;;;;;;5097194;28;20225;-61
2022/10/25 04:06:07;;;;;;;6.97;3.27;;;;;;;;;;5097361;28;20687;-61
2022/10/25 04:08:35;;;;;;;7.00;3.73;;;;;;;;;;5097253;28;20241;-62
2022/10/25 04:11:02;;;;;;;3.37;2.87;;;;;;;;;;5097080;28;20610;-62
2022/10/25 04:13:30;;;;;;;4.40;3.37;;;;;;;;;;5097210;28;20316;-61
2022/10/25 04:16:05;;;;;;;6.43;3.43;;;;;;;;;;5097046;28;20297;-61
2022/10/25 04:18:34;;;;;;;5.93;3.87;;;;;;;;;;5096839;28;20210;-62
2022/10/25 04:21:05;;;;;;;5.43;3.23;;;;;;;;;;5100265;28;20622;-62
2022/10/25 04:23:33;;;;;;;6.90;3.20;;;;;;;;;;5099097;28;20249;-62
2022/10/25 04:26:00;;;;;;;8.17;3.17;;;;;;;;;;5099317;28;20229;-62
2022/10/25 04:28:28;;;;;;;7.07;3.30;;;;;;;;;;5099162;28;20229;-62
2022/10/25 04:30:56;;;;;;;5.27;2.77;;;;;;;;;;5099673;28;20718;-62
2022/10/25 04:33:23;;;;;;;3.27;2.97;;;;;;;;;;5096192;28;20260;-62
2022/10/25 04:35:56;;;;;;;8.10;2.90;;;;;;;;;;5099001;28;20261;-62
2022/10/25 04:38:24;;;;;;;5.40;3.00;;;;;;;;;;5099413;28;20202;-62
2022/10/25 04:40:55;;;;;;;6.67;3.63;;;;;;;;;;5100124;28;20233;-62
2022/10/25 04:43:23;;;;;;;7.53;3.50;;;;;;;;;;5099471;28;20220;-62
2022/10/25 04:45:51;;;;;;;8.90;4.00;;;;;;;;;;5099322;28;20676;-62
2022/10/25 04:48:19;;;;;;;6.40;3.47;;;;;;;;;;5098811;28;20233;-62
2022/10/25 04:50:47;;;;;;;6.73;3.47;;;;;;;;;;5098759;28;20229;-62
2022/10/25 04:53:16;;;;;;;5.90;3.57;;;;;;;;;;5096136;28;20253;-62
2022/10/25 04:55:44;;;;;;;4.97;3.07;;;;;;;;;;5098721;28;20225;-61
2022/10/25 04:58:11;;;;;;;7.50;3.67;;;;;;;;;;5099483;28;20209;-62
2022/10/25 05:00:39;;;;;;;6.37;3.63;;;;;;;;;;5099100;28;20233;-62
2022/10/25 05:03:07;;;;;;;13.07;3.90;;;;;;;;;;5098880;28;20197;-62
2022/10/25 05:05:39;;;;;;;5.93;3.70;;;;;;;;;;5098723;28;20198;-62
2022/10/25 05:08:07;;;;;;;5.43;3.67;;;;;;;;;;5098548;28;20216;-61
2022/10/25 05:10:36;;;;;;;7.70;3.73;;;;;;;;;;5098986;28;20197;-62
2022/10/25 05:13:04;;;;;;;8.27;4.17;;;;;;;;;;5096062;28;20253;-62
2022/10/25 05:15:32;;;;;;;9.90;4.30;;;;;;;;;;5099151;28;20225;-62
2022/10/25 05:18:00;;;;;;;9.73;4.67;;;;;;;;;;5098514;28;20250;-62
2022/10/25 05:20:28;;;;;;;8.67;4.03;;;;;;;;;;5098171;28;20659;-61
2022/10/25 05:22:56;;;;;;;7.50;4.23;;;;;;;;;;5098469;28;20657;-61
2022/10/25 05:25:24;;;;;;;10.10;4.40;;;;;;;;;;5096358;28;20194;-61
2022/10/25 05:27:53;;;;;;;6.70;3.60;;;;;;;;;;5098562;28;20217;-62
2022/10/25 05:30:20;;;;;;;7.70;4.17;;;;;;;;;;5098416;28;20198;-61
2022/10/25 05:32:49;;;;;;;10.53;4.13;;;;;;;;;;5098394;28;20217;-61
2022/10/25 05:35:17;;;;;;;7.40;4.27;;;;;;;;;;5097935;28;20931;-61
2022/10/25 05:37:45;;;;;;;7.23;3.90;;;;;;;;;;5098981;28;20293;-61
2022/10/25 05:40:12;;;;;;;8.13;3.70;;;;;;;;;;5099157;28;20293;-62
2022/10/25 05:42:40;;;;;;;7.47;4.20;;;;;;;;;;5086267;28;20296;-62
2022/10/25 05:45:10;;;;;;;7.43;3.87;;;;;;;;;;5099082;28;20278;-61
2022/10/25 05:47:37;;;;;;;4.40;3.87;;;;;;;;;;5099203;28;20288;-62
2022/10/25 05:50:05;;;;;;;6.43;3.40;;;;;;;;;;5098643;28;20644;-61
2022/10/25 05:52:33;;;;;;;6.00;4.10;;;;;;;;;;5099136;28;20237;-62
2022/10/25 05:55:01;;;;;;;7.93;4.40;;;;;;;;;;5098810;28;20725;-62
2022/10/25 05:57:29;;;;;;;6.80;4.03;;;;;;;;;;5099428;28;20202;-62
2022/10/25 05:59:57;;;;;;;5.30;3.70;;;;;;;;;;5098770;28;20201;-61
2022/10/25 06:02:26;;;;;;;10.20;4.73;;;;;;;;;;5099082;28;20236;-61
2022/10/25 06:04:54;;;;;;;10.20;4.30;;;;;;;;;;5099556;28;20270;-62
2022/10/25 06:07:22;;;;;;;6.93;4.10;;;;;;;;;;5099510;28;20229;-62
2022/10/25 06:09:49;;;;;;;7.07;4.13;;;;;;;;;;5099792;28;20729;-61
2022/10/25 06:12:17;;;;;;;8.77;4.40;;;;;;;;;;5099911;28;20240;-61
2022/10/25 06:14:45;;;;;;;8.40;4.03;;;;;;;;;;5099211;28;20233;-61
2022/10/25 06:17:13;;;;;;;8.37;4.57;;;;;;;;;;5099272;28;20255;-62
2022/10/25 06:19:42;;;;;;;8.50;5.07;;;;;;;;;;5099035;28;20210;-62
2022/10/25 06:22:10;;;;;;;12.17;4.80;;;;;;;;;;5099124;28;20241;-61
2022/10/25 06:24:38;;;;;;;10.87;5.13;;;;;;;;;;5099205;28;20221;-61
2022/10/25 06:27:06;;;;;;;11.90;4.83;;;;;;;;;;5099679;28;20209;-61
2022/10/25 06:29:34;;;;;;;7.97;4.50;;;;;;;;;;5099463;28;20209;-61
2022/10/25 06:32:04;;;;;;;9.33;4.80;;;;;;;;;;5098641;28;20202;-61
2022/10/25 06:34:32;;;;;;;10.57;4.17;;;;;;;;;;5098463;28;20339;-61
2022/10/25 06:37:01;;;;;;;9.13;4.60;;;;;;;;;;5098588;28;20201;-62
2022/10/25 06:39:29;;;;;;;14.13;4.63;;;;;;;;;;5098709;28;20235;-62
2022/10/25 06:41:58;;;;;;;10.63;4.77;;;;;;;;;;5098066;28;20576;-62
2022/10/25 06:44:26;;;;;;;7.43;4.13;;;;;;;;;;5099073;28;20620;-62
2022/10/25 06:46:53;;;;;;;6.97;3.47;;;;;;;;;;5099265;28;20209;-61
2022/10/25 06:49:41;;;;;;;7.20;3.50;;;;;;;;;;5098528;28;20240;-62
2022/10/25 06:52:10;;;;;;;6.63;3.87;;;;;;;;;;5099148;28;20205;-62
2022/10/25 06:54:38;;;;;;;8.17;3.90;;;;;;;;;;5098436;28;20272;-62
2022/10/25 06:57:05;;;;;;;9.57;3.93;;;;;;;;;;5099094;28;20205;-61
2022/10/25 06:59:33;;;;;;;11.33;4.50;;;;;;;;;;5098944;28;20255;-62
2022/10/25 07:02:01;;;;;;;7.40;4.00;;;;;;;;;;5098782;28;20661;-62
2022/10/25 07:04:31;;;;;;;9.40;4.37;;;;;;;;;;5098650;28;20308;-61
2022/10/25 07:06:59;;;;;;;11.83;4.53;;;;;;;;;;5099183;28;20263;-62
2022/10/25 07:09:28;;;;;;;9.60;4.03;;;;;;;;;;5098691;28;20296;-61
2022/10/25 07:11:56;;;;;;;11.47;4.37;;;;;;;;;;5097621;28;20237;-61
2022/10/25 07:14:23;;;;;;;7.37;4.10;;;;;;;;;;5097843;28;20265;-61
2022/10/25 07:16:51;;;;;;;11.87;4.63;;;;;;;;;;5092511;28;20286;-61
2022/10/25 07:19:19;;;;;;;6.87;4.00;;;;;;;;;;5093036;28;20714;-61
2022/10/25 07:21:47;;;;;;;10.03;4.27;;;;;;;;;;5098080;28;20293;-61
2022/10/25 07:24:15;;;;;;;8.27;4.30;;;;;;;;;;5097600;28;20221;-61
2022/10/25 07:26:44;;;;;;;13.73;4.57;;;;;;;;;;5097626;28;20314;-62
2022/10/25 07:29:11;;;;;;;14.90;4.80;;;;;;;;;;5097673;28;20642;-62
2022/10/25 07:31:40;;;;;;;11.83;5.23;;;;;;;;;;5097774;28;20241;-62
2022/10/25 07:34:10;;;;;;;8.97;4.00;;;;;;;;;;5097103;28;20308;-62
2022/10/25 07:36:38;;;;;;;7.47;4.47;;;;;;;;;;5097618;28;20237;-62
2022/10/25 07:39:05;;;;;;;11.67;4.43;;;;;;;;;;5097598;28;20288;-62
2022/10/25 07:41:34;;;;;;;6.27;3.70;;;;;;;;;;5097488;28;20209;-62
2022/10/25 07:44:03;;;;;;;13.67;4.17;;;;;;;;;;5097343;28;20252;-62
2022/10/25 07:46:33;;;;;;;5.13;3.67;;;;;;;;;;5097454;28;20241;-62
2022/10/25 07:49:04;;;;;;;7.03;3.80;;;;;;;;;;5095531;28;20233;-63
2022/10/25 07:51:32;;;;;;;12.40;3.40;;;;;;;;;;5096747;28;20240;-62
2022/10/25 07:53:59;;;;;;;10.63;3.27;;;;;;;;;;5098153;28;20587;-62
2022/10/25 07:56:29;;;;;;;6.40;3.37;;;;;;;;;;5101060;28;20210;-63
2022/10/25 07:58:56;;;;;;;9.20;3.13;;;;;;;;;;5100914;28;20281;-62
2022/10/25 08:01:26;;;;;;;8.00;3.70;;;;;;;;;;5100771;28;20302;-63
2022/10/25 08:03:54;;;;;;;6.80;3.97;;;;;;;;;;5100729;28;20230;-63
2022/10/25 08:06:23;;;;;;;5.83;3.57;;;;;;;;;;5100960;28;20232;-63
2022/10/25 08:08:51;;;;;;;5.77;3.50;;;;;;;;;;5096436;28;20722;-63
2022/10/25 08:11:18;;;;;;;6.47;3.17;;;;;;;;;;5100620;28;20286;-62
2022/10/25 08:13:48;;;;;;;6.77;3.10;;;;;;;;;;5100777;28;20267;-63
2022/10/25 08:16:15;;;;;;;9.20;3.93;;;;;;;;;;5100246;28;20309;-63
2022/10/25 08:18:44;;;;;;;12.43;4.37;;;;;;;;;;5100465;28;20241;-63
2022/10/25 08:21:12;;;;;;;11.37;3.73;;;;;;;;;;5100339;28;20245;-63
2022/10/25 08:23:40;;;;;;;8.03;3.67;;;;;;;;;;5100129;28;20257;-64
2022/10/25 08:26:09;;;;;;;9.67;3.17;;;;;;;;;;5097313;28;20197;-61
2022/10/25 08:28:37;;;;;;;11.77;4.60;;;;;;;;;;5094027;28;20205;-62
2022/10/25 08:31:04;;;;;;;16.47;4.10;;;;;;;;;;5100309;28;20225;-61
2022/10/25 08:33:32;;;;;;;9.07;4.13;;;;;;;;;;5094720;28;20264;-61
2022/10/25 08:36:02;;;;;;;6.87;3.70;;;;;;;;;;5100227;28;20229;-60
2022/10/25 08:38:30;;;;;;;11.40;4.13;;;;;;;;;;5100165;28;20212;-61
2022/10/25 08:41:01;;;;;;;10.77;4.17;;;;;;;;;;5100014;28;20227;-62
2022/10/25 08:43:52;;;;;;;9.93;4.10;;;;;;;;;;5099813;28;20237;-63
2022/10/25 08:46:22;;;;;;;17.13;4.30;;;;;;;;;;5089912;28;20235;-62
2022/10/25 08:48:53;;;;;;;9.40;4.17;;;;;;;;;;5096639;28;20207;-63
2022/10/25 08:51:25;;;;;;;7.27;3.73;;;;;;;;;;5089412;28;20229;-62
2022/10/25 08:53:54;;;;;;;7.97;3.83;;;;;;;;;;5097724;28;20252;-63
2022/10/25 08:56:23;;;;;;;12.13;4.17;;;;;;;;;;5099632;28;20703;-62
2022/10/25 08:58:53;;;;;;;8.67;4.43;;;;;;;;;;5099458;28;20236;-62
2022/10/25 09:01:23;;;;;;;8.80;4.43;;;;;;;;;;5099805;28;20265;-62
2022/10/25 09:03:51;;;;;;;8.53;4.03;;;;;;;;;;5099359;28;20221;-62
2022/10/25 09:06:23;;;;;;;6.97;4.67;;;;;;;;;;5099479;28;20233;-62
2022/10/25 09:08:58;;;;;;;6.97;3.97;;;;;;;;;;5088694;28;20237;-62
2022/10/25 09:11:34;;;;;;;9.43;4.17;;;;;;;;;;5099678;28;20633;-62
2022/10/25 09:14:04;;;;;;;11.83;4.60;;;;;;;;;;5099266;28;20242;-62
2022/10/25 09:16:34;;;;;;;9.47;4.33;;;;;;;;;;5099475;28;20233;-62
2022/10/25 09:19:09;;;;;;;10.03;4.60;;;;;;;;;;5098645;28;20308;-62
2022/10/25 09:21:42;;;;;;;6.17;4.30;;;;;;;;;;5099526;28;20235;-62
2022/10/25 09:24:15;;;;;;;10.63;4.20;;;;;;;;;;5098887;28;20308;-63
2022/10/25 09:26:49;;;;;;;9.53;5.03;;;;;;;;;;5099089;28;20237;-62
2022/10/25 09:29:23;;;;;;;11.77;4.23;;;;;;;;;;5099333;28;20269;-62
2022/10/25 09:31:52;;;;;;;9.57;4.30;;;;;;;;;;5099380;28;20645;-63
2022/10/25 09:34:21;;;;;;;8.40;4.43;;;;;;;;;;5098570;28;20739;-64
2022/10/25 09:36:52;;;;;;;11.47;4.43;;;;;;;;;;5098651;28;20289;-64
2022/10/25 09:39:24;;;;;;;9.13;4.07;;;;;;;;;;5098719;28;20241;-64
2022/10/25 09:41:53;;;;;;;11.83;3.97;;;;;;;;;;5099053;28;20253;-64
2022/10/25 09:44:29;;;;;;;9.83;3.97;;;;;;;;;;5099094;28;20225;-64
2022/10/25 09:46:58;;;;;;;8.00;4.73;;;;;;;;;;5098876;28;20722;-63
2022/10/25 09:49:29;;;;;;;10.07;3.80;;;;;;;;;;5098529;28;20202;-64
2022/10/25 09:52:00;;;;;;;7.33;4.17;;;;;;;;;;5098724;28;20292;-64
2022/10/25 09:54:31;;;;;;;10.07;4.53;;;;;;;;;;5086126;28;20269;-64
2022/10/25 09:56:59;;;;;;;7.20;3.97;;;;;;;;;;5096620;28;20271;-64
2022/10/25 09:59:27;;;;;;;7.77;3.80;;;;;;;;;;5098555;28;20233;-64
2022/10/25 10:01:55;;;;;;;7.63;3.63;;;;;;;;;;5098683;28;20352;-64
2022/10/25 10:04:25;;;;;;;6.13;3.27;;;;;;;;;;5098345;28;20235;-64
2022/10/25 10:06:58;;;;;;;12.23;4.40;;;;;;;;;;5098791;28;20618;-64
2022/10/25 10:09:28;;;;;;;8.00;3.97;;;;;;;;;;5098158;28;20249;-64
2022/10/25 10:11:59;;;;;;;8.17;3.70;;;;;;;;;;5098259;28;20244;-64
2022/10/25 10:14:33;;;;;;;16.27;4.13;;;;;;;;;;5098441;28;20226;-63
2022/10/25 10:17:02;;;;;;;8.40;4.33;;;;;;;;;;5097269;28;20256;-64
2022/10/25 10:19:30;;;;;;;7.40;4.07;;;;;;;;;;5098278;28;20284;-64
2022/10/25 10:21:59;;;;;;;4.10;3.53;;;;;;;;;;5098227;28;20247;-63
2022/10/25 10:24:28;;;;;;;7.97;3.93;;;;;;;;;;5098062;28;20312;-64
2022/10/25 10:26:58;;;;;;;9.27;3.97;;;;;;;;;;5098097;28;20255;-64
2022/10/25 10:29:27;;;;;;;8.60;4.10;;;;;;;;;;5098336;28;20216;-64
2022/10/25 10:31:57;;;;;;;8.67;3.53;;;;;;;;;;5098012;28;20304;-64
2022/10/25 10:34:26;;;;;;;9.57;4.27;;;;;;;;;;5094173;28;20673;-64
2022/10/25 10:37:12;;;;;;;7.67;4.27;;;;;;;;;;5097883;28;20679;-64
2022/10/25 10:39:47;;;;;;;6.63;3.80;;;;;;;;;;5087048;28;20225;-63
2022/10/25 10:42:17;;;;;;;14.03;4.63;;;;;;;;;;5091801;28;20193;-64
2022/10/25 10:45:00;;;;;;;8.73;4.43;;;;;;;;;;5097922;28;20688;-64
2022/10/25 10:47:31;;;;;;;9.53;4.07;;;;;;;;;;5085013;28;20203;-64
2022/10/25 10:49:59;;;;;;;6.03;4.10;;;;;;;;;;5097179;28;20198;-63
2022/10/25 10:52:28;;;;;;;8.00;3.90;;;;;;;;;;5097516;28;20584;-64
2022/10/25 10:54:56;;;;;;;4.50;3.50;;;;;;;;;;5097403;28;20271;-64
2022/10/25 10:57:28;;;;;;;7.10;3.80;;;;;;;;;;5097430;28;20675;-63
2022/10/25 10:59:56;;;;;;;10.97;4.10;;;;;;;;;;5097687;28;20297;-64
2022/10/25 11:02:32;;;;;;;6.90;3.73;;;;;;;;;;5097814;28;20206;-63
2022/10/25 11:05:00;;;;;;;9.07;4.03;;;;;;;;;;5097242;28;20608;-62
2022/10/25 11:07:32;;;;;;;10.17;3.70;;;;;;;;;;5097739;28;20208;-64
2022/10/25 11:10:19;;;;;;;9.93;3.67;;;;;;;;;;5097755;28;20239;-63
2022/10/25 11:13:04;;;;;;;9.17;3.23;;;;;;;;;;5097671;28;20241;-62
2022/10/25 11:15:33;;;;;;;5.43;2.97;;;;;;;;;;5097690;28;20237;-62
2022/10/25 11:18:04;;;;;;;4.47;3.23;;;;;;;;;;5097512;28;20284;-62
2022/10/25 11:20:36;;;;;;;5.87;2.53;;;;;;;;;;5097460;28;20266;-62
2022/10/25 11:23:06;;;;;;;4.73;2.80;;;;;;;;;;5097093;28;20237;-62
2022/10/25 11:25:37;;;;;;;5.63;2.60;;;;;;;;;;5097361;28;20274;-62
2022/10/25 11:28:17;;;;;;;3.00;2.10;;;;;;;;;;5098265;28;20244;-62
2022/10/25 11:30:49;;;;;;;6.27;2.60;;;;;;;;;;5101615;28;20240;-64
2022/10/25 11:33:24;;;;;;;6.53;2.53;;;;;;;;;;5101914;28;20201;-62
2022/10/25 11:36:06;;;;;;;4.53;2.27;;;;;;;;;;5101690;28;20216;-62
2022/10/25 11:38:44;;;;;;;4.63;2.07;;;;;;;;;;5101319;28;20220;-63
2022/10/25 11:41:17;;;;;;;6.30;2.53;;;;;;;;;;5101304;28;20274;-63
2022/10/25 11:43:52;;;;;;;2.40;2.20;;;;;;;;;;5101393;28;20228;-62
2022/10/25 11:46:26;;;;;;;9.63;6.10;;;;;;;;;;5101518;28;20201;-63
2022/10/25 11:49:00;;;;;;;9.23;5.93;;;;;;;;;;5100917;28;20201;-61
2022/10/25 11:51:39;;;;;;;9.80;6.10;;;;;;;;;;5087444;28;20726;-62
2022/10/25 11:54:13;;;;;;;31.03;16.97;;;;;;;;;;5088895;28;20584;-63
2022/10/25 11:56:45;;;;;;;7.73;4.90;;;;;;;;;;5101946;28;20226;-62
2022/10/25 11:59:18;;;;;;;3.63;2.03;;;;;;;;;;5101848;28;20201;-62
2022/10/25 12:01:57;;;;;;;2.83;2.07;;;;;;;;;;5101722;28;20562;-62
2022/10/25 12:04:34;;;;;;;2.60;1.70;;;;;;;;;;5101217;28;20229;-62
2022/10/25 12:07:07;;;;;;;5.80;2.47;;;;;;;;;;5101584;28;20205;-62
2022/10/25 12:09:39;;;;;;;3.50;1.97;;;;;;;;;;5101440;28;20215;-61
2022/10/25 12:12:10;;;;;;;2.13;1.90;;;;;;;;;;5101268;28;20209;-62
2022/10/25 12:14:42;;;;;;;3.63;1.87;;;;;;;;;;5101254;28;20237;-62
2022/10/25 12:17:19;;;;;;;5.43;2.20;;;;;;;;;;5101023;28;20426;-61
2022/10/25 12:19:48;;;;;;;1.60;1.50;;;;;;;;;;5100987;28;20262;-61
2022/10/25 12:22:18;;;;;;;4.03;1.80;;;;;;;;;;5101113;28;20209;-61
2022/10/25 12:24:48;;;;;;;5.37;2.13;;;;;;;;;;5100870;28;20278;-60
2022/10/25 12:27:19;;;;;;;3.87;1.90;;;;;;;;;;5101062;28;20204;-61
2022/10/25 12:29:51;;;;;;;5.97;2.33;;;;;;;;;;5101410;28;20288;-62
2022/10/25 12:32:21;;;;;;;5.07;2.00;;;;;;;;;;5100914;28;20224;-61
2022/10/25 12:34:50;;;;;;;2.57;1.57;;;;;;;;;;5100530;28;20232;-61
2022/10/25 12:37:22;;;;;;;2.30;1.70;;;;;;;;;;5100813;28;20314;-62
2022/10/25 12:39:51;;;;;;;4.67;2.50;;;;;;;;;;5099582;28;20293;-62
2022/10/25 12:42:20;;;;;;;13.63;8.10;;;;;;;;;;5100397;28;20254;-61
2022/10/25 12:45:04;;;;;;;5.33;2.30;;;;;;;;;;5100246;28;20282;-62
2022/10/25 12:47:47;;;;;;;5.90;2.20;;;;;;;;;;5100240;28;20243;-60
2022/10/25 12:50:27;;;;;;;1.97;1.57;;;;;;;;;;5099921;28;20236;-61
2022/10/25 12:53:04;;;;;;;5.23;1.80;;;;;;;;;;5100164;28;20244;-62
2022/10/25 12:55:38;;;;;;;2.47;1.80;;;;;;;;;;5099714;28;20240;-61
2022/10/25 12:58:23;;;;;;;3.73;2.10;;;;;;;;;;5099851;28;20282;-60
2022/10/25 13:01:01;;;;;;;6.07;2.03;;;;;;;;;;5099923;28;20645;-62
2022/10/25 13:03:45;;;;;;;3.10;1.83;;;;;;;;;;5099552;28;20221;-61
2022/10/25 13:06:30;;;;;;;5.67;1.80;;;;;;;;;;5099966;28;20237;-60
2022/10/25 13:09:01;;;;;;;4.47;1.90;;;;;;;;;;5099716;28;20212;-61
2022/10/25 13:11:37;;;;;;;2.70;1.70;;;;;;;;;;5099791;28;20201;-60
2022/10/25 13:14:05;;;;;;;3.43;1.90;;;;;;;;;;5087937;28;20254;-59
2022/10/25 13:16:34;;;;;;;4.47;1.80;;;;;;;;;;5098758;28;20229;-60
2022/10/25 13:19:20;;;;;;;4.03;1.90;;;;;;;;;;5099394;28;20220;-60
2022/10/25 13:22:20;;;;;;;2.63;1.60;;;;;;;;;;5099571;28;20241;-61
2022/10/25 13:24:47;;;;;;;6.20;1.93;;;;;;;;;;5089155;28;20771;-60
2022/10/25 13:27:19;;;;;;;2.67;1.90;;;;;;;;;;5099326;28;20264;-61
2022/10/25 13:29:57;;;;;;;5.27;1.77;;;;;;;;;;5094878;28;20241;-61
2022/10/25 13:32:27;;;;;;;4.10;2.20;;;;;;;;;;5095008;28;20296;-61
2022/10/25 13:34:57;;;;;;;5.43;2.27;;;;;;;;;;5099060;28;20761;-60
2022/10/25 13:37:42;;;;;;;5.47;1.97;;;;;;;;;;5092760;28;20285;-62
2022/10/25 13:40:21;;;;;;;2.80;1.97;;;;;;;;;;5098655;28;20210;-62
2022/10/25 13:42:57;;;;;;;3.37;2.27;;;;;;;;;;5080209;28;20209;-66
2022/10/25 13:45:29;;;;;;;3.53;2.13;;;;;;;;;;5095007;28;20248;-62
2022/10/25 13:48:07;;;;;;;3.93;2.00;;;;;;;;;;5098861;28;20205;-62
2022/10/25 13:50:42;;;;;;;2.47;1.90;;;;;;;;;;5098322;28;20296;-62
2022/10/25 13:53:14;;;;;;;6.13;2.20;;;;;;;;;;5098471;28;20236;-62
2022/10/25 13:55:45;;;;;;;4.40;2.27;;;;;;;;;;5098439;28;20261;-62
2022/10/25 13:58:32;;;;;;;2.63;1.70;;;;;;;;;;5098534;28;20324;-62
2022/10/25 14:01:21;;;;;;;5.30;2.03;;;;;;;;;;5098579;28;20636;-62
2022/10/25 14:03:53;;;;;;;4.90;1.97;;;;;;;;;;5085503;28;20769;-60
2022/10/25 14:06:25;;;;;;;7.00;2.20;;;;;;;;;;5098156;28;20236;-62
2022/10/25 14:08:56;;;;;;;7.70;2.70;;;;;;;;;;5098444;28;20284;-61
2022/10/25 14:11:26;;;;;;;3.50;1.90;;;;;;;;;;5098499;28;20245;-62
2022/10/25 14:13:58;;;;;;;4.67;2.10;;;;;;;;;;5098505;28;20226;-62
2022/10/25 14:16:28;;;;;;;3.10;2.27;;;;;;;;;;5098263;28;20284;-61
2022/10/25 14:18:59;;;;;;;3.80;1.80;;;;;;;;;;5097953;28;20237;-63
2022/10/25 14:21:29;;;;;;;3.83;2.10;;;;;;;;;;5098106;28;20240;-61
2022/10/25 14:23:57;;;;;;;5.53;2.00;;;;;;;;;;5097690;28;20572;-61
2022/10/25 14:26:25;;;;;;;2.90;1.93;;;;;;;;;;5098074;28;20712;-62
2022/10/25 14:28:52;;;;;;;7.17;1.93;;;;;;;;;;5098204;28;20232;-61
2022/10/25 14:31:21;;;;;;;3.63;1.93;;;;;;;;;;5098020;28;20638;-62
2022/10/25 14:33:52;;;;;;;3.20;2.27;;;;;;;;;;5097861;28;20226;-62
2022/10/25 14:36:27;;;;;;;3.77;2.00;;;;;;;;;;5098030;28;20673;-63
2022/10/25 14:38:55;;;;;;;2.63;1.93;;;;;;;;;;5097978;28;20648;-63
2022/10/25 14:41:23;;;;;;;5.93;1.93;;;;;;;;;;5097766;28;20233;-63
2022/10/25 14:43:51;;;;;;;3.93;2.00;;;;;;;;;;5097678;28;20295;-63
2022/10/25 14:46:20;;;;;;;4.80;2.10;;;;;;;;;;5098069;28;20216;-63
2022/10/25 14:48:48;;;;;;;2.90;2.40;;;;;;;;;;5097699;28;20692;-62
2022/10/25 14:51:20;;;;;;;4.97;1.97;;;;;;;;;;5097758;28;20244;-61
2022/10/25 14:53:54;;;;;;;8.37;2.30;;;;;;;;;;5097535;28;20232;-61
2022/10/25 14:56:23;;;;;;;4.47;1.97;;;;;;;;;;5093547;28;20198;-61
2022/10/25 14:58:51;;;;;;;4.27;2.00;;;;;;;;;;5097419;28;20769;-63
2022/10/25 15:01:20;;;;;;;4.07;2.13;;;;;;;;;;5097803;28;20245;-62